sensor_id;sensor_type;location;lat;lon;timestamp;P1;durP1;ratioP1;P2;durP2;ratioP2
10945;SDS011;5525;42.648;23.368;2023-03-31T00:01:03;4.10;;;3.25;;
10945;SDS011;5525;42.648;23.368;2023-03-31T00:03:30;5.65;;;3.60;;
10945;SDS011;5525;42.648;23.368;2023-03-31T00:05:58;5.40;;;4.10;;
10945;SDS011;5525;42.648;23.368;2023-03-31T00:08:26;7.18;;;3.40;;
10945;SDS011;5525;42.648;23.368;2023-03-31T00:10:59;6.22;;;3.10;;
10945;SDS011;5525;42.648;23.368;2023-03-31T00:13:32;5.95;;;3.60;;
10945;SDS011;5525;42.648;23.368;2023-03-31T00:15:59;4.47;;;3.40;;
10945;SDS011;5525;42.648;23.368;2023-03-31T00:18:28;4.85;;;3.17;;
10945;SDS011;5525;42.648;23.368;2023-03-31T00:20:59;5.75;;;2.95;;
10945;SDS011;5525;42.648;23.368;2023-03-31T00:23:33;5.68;;;3.67;;
10945;SDS011;5525;42.648;23.368;2023-03-31T00:26:00;6.45;;;3.50;;
10945;SDS011;5525;42.648;23.368;2023-03-31T00:28:26;5.88;;;3.72;;
10945;SDS011;5525;42.648;23.368;2023-03-31T00:30:58;5.57;;;3.00;;
10945;SDS011;5525;42.648;23.368;2023-03-31T00:33:25;6.50;;;3.30;;
10945;SDS011;5525;42.648;23.368;2023-03-31T00:35:52;5.40;;;3.55;;
10945;SDS011;5525;42.648;23.368;2023-03-31T00:38:19;5.53;;;3.40;;
10945;SDS011;5525;42.648;23.368;2023-03-31T00:40:47;5.25;;;3.20;;
10945;SDS011;5525;42.648;23.368;2023-03-31T00:43:20;4.93;;;3.42;;
10945;SDS011;5525;42.648;23.368;2023-03-31T00:45:55;5.68;;;3.08;;
10945;SDS011;5525;42.648;23.368;2023-03-31T00:48:28;5.10;;;3.38;;
10945;SDS011;5525;42.648;23.368;2023-03-31T00:50:56;5.15;;;3.25;;
10945;SDS011;5525;42.648;23.368;2023-03-31T00:53:28;5.28;;;3.30;;
10945;SDS011;5525;42.648;23.368;2023-03-31T00:55:58;4.25;;;2.88;;
10945;SDS011;5525;42.648;23.368;2023-03-31T00:58:30;4.93;;;2.83;;
10945;SDS011;5525;42.648;23.368;2023-03-31T01:01:00;5.47;;;3.20;;
10945;SDS011;5525;42.648;23.368;2023-03-31T01:03:28;5.13;;;2.80;;
10945;SDS011;5525;42.648;23.368;2023-03-31T01:05:58;5.28;;;3.38;;
10945;SDS011;5525;42.648;23.368;2023-03-31T01:08:28;5.15;;;3.20;;
10945;SDS011;5525;42.648;23.368;2023-03-31T01:10:58;4.80;;;3.28;;
10945;SDS011;5525;42.648;23.368;2023-03-31T01:13:28;4.65;;;3.30;;
10945;SDS011;5525;42.648;23.368;2023-03-31T01:15:56;5.20;;;3.55;;
10945;SDS011;5525;42.648;23.368;2023-03-31T01:18:24;6.55;;;3.42;;
10945;SDS011;5525;42.648;23.368;2023-03-31T01:24:19;4.82;;;3.38;;
10945;SDS011;5525;42.648;23.368;2023-03-31T01:27:19;8.07;;;3.50;;
10945;SDS011;5525;42.648;23.368;2023-03-31T01:30:07;4.80;;;3.47;;
10945;SDS011;5525;42.648;23.368;2023-03-31T01:39:20;6.20;;;3.45;;
10945;SDS011;5525;42.648;23.368;2023-03-31T01:42:14;6.18;;;3.30;;
10945;SDS011;5525;42.648;23.368;2023-03-31T01:44:48;6.80;;;3.53;;
10945;SDS011;5525;42.648;23.368;2023-03-31T01:47:25;5.07;;;3.28;;
10945;SDS011;5525;42.648;23.368;2023-03-31T01:49:58;7.38;;;3.75;;
10945;SDS011;5525;42.648;23.368;2023-03-31T01:52:31;6.00;;;3.60;;
10945;SDS011;5525;42.648;23.368;2023-03-31T01:55:05;8.20;;;4.28;;
10945;SDS011;5525;42.648;23.368;2023-03-31T01:57:38;6.78;;;4.80;;
10945;SDS011;5525;42.648;23.368;2023-03-31T02:00:11;7.43;;;4.22;;
10945;SDS011;5525;42.648;23.368;2023-03-31T02:02:42;7.05;;;3.97;;
10945;SDS011;5525;42.648;23.368;2023-03-31T02:05:14;6.22;;;4.25;;
10945;SDS011;5525;42.648;23.368;2023-03-31T02:07:46;8.98;;;4.60;;
10945;SDS011;5525;42.648;23.368;2023-03-31T02:10:17;7.05;;;4.10;;
10945;SDS011;5525;42.648;23.368;2023-03-31T02:12:47;9.82;;;4.10;;
10945;SDS011;5525;42.648;23.368;2023-03-31T02:15:17;9.27;;;4.55;;
10945;SDS011;5525;42.648;23.368;2023-03-31T02:17:48;9.90;;;4.65;;
10945;SDS011;5525;42.648;23.368;2023-03-31T02:20:20;10.73;;;4.80;;
10945;SDS011;5525;42.648;23.368;2023-03-31T02:22:48;9.13;;;4.47;;
10945;SDS011;5525;42.648;23.368;2023-03-31T02:25:20;10.98;;;5.40;;
10945;SDS011;5525;42.648;23.368;2023-03-31T02:27:52;11.35;;;6.50;;
10945;SDS011;5525;42.648;23.368;2023-03-31T02:30:21;10.48;;;6.70;;
10945;SDS011;5525;42.648;23.368;2023-03-31T02:32:54;11.02;;;6.55;;
10945;SDS011;5525;42.648;23.368;2023-03-31T02:35:22;12.73;;;7.63;;
10945;SDS011;5525;42.648;23.368;2023-03-31T02:37:49;13.48;;;7.15;;
10945;SDS011;5525;42.648;23.368;2023-03-31T02:40:18;13.52;;;6.70;;
10945;SDS011;5525;42.648;23.368;2023-03-31T02:42:46;14.27;;;7.80;;
10945;SDS011;5525;42.648;23.368;2023-03-31T02:45:37;17.05;;;8.18;;
10945;SDS011;5525;42.648;23.368;2023-03-31T02:48:06;9.23;;;4.43;;
10945;SDS011;5525;42.648;23.368;2023-03-31T02:50:41;10.32;;;6.38;;
10945;SDS011;5525;42.648;23.368;2023-03-31T02:53:24;9.43;;;6.22;;
10945;SDS011;5525;42.648;23.368;2023-03-31T02:55:58;12.30;;;6.57;;
10945;SDS011;5525;42.648;23.368;2023-03-31T02:58:43;7.32;;;5.10;;
10945;SDS011;5525;42.648;23.368;2023-03-31T03:01:30;9.77;;;5.40;;
10945;SDS011;5525;42.648;23.368;2023-03-31T03:04:10;7.35;;;5.20;;
10945;SDS011;5525;42.648;23.368;2023-03-31T03:06:51;7.93;;;4.68;;
10945;SDS011;5525;42.648;23.368;2023-03-31T03:09:25;7.75;;;3.95;;
10945;SDS011;5525;42.648;23.368;2023-03-31T03:12:02;4.50;;;3.00;;
10945;SDS011;5525;42.648;23.368;2023-03-31T03:14:34;7.18;;;3.20;;
10945;SDS011;5525;42.648;23.368;2023-03-31T03:17:08;8.45;;;3.60;;
10945;SDS011;5525;42.648;23.368;2023-03-31T03:19:37;4.05;;;2.97;;
10945;SDS011;5525;42.648;23.368;2023-03-31T03:22:07;3.83;;;2.60;;
10945;SDS011;5525;42.648;23.368;2023-03-31T03:24:34;3.60;;;2.28;;
10945;SDS011;5525;42.648;23.368;2023-03-31T03:27:00;3.95;;;2.30;;
10945;SDS011;5525;42.648;23.368;2023-03-31T03:29:27;4.53;;;2.47;;
10945;SDS011;5525;42.648;23.368;2023-03-31T03:31:54;3.15;;;2.30;;
10945;SDS011;5525;42.648;23.368;2023-03-31T03:34:22;5.85;;;2.50;;
10945;SDS011;5525;42.648;23.368;2023-03-31T03:36:49;4.50;;;2.13;;
10945;SDS011;5525;42.648;23.368;2023-03-31T03:39:16;5.63;;;2.30;;
10945;SDS011;5525;42.648;23.368;2023-03-31T03:41:43;4.22;;;2.70;;
10945;SDS011;5525;42.648;23.368;2023-03-31T03:44:11;5.95;;;3.08;;
10945;SDS011;5525;42.648;23.368;2023-03-31T03:46:37;9.02;;;4.18;;
10945;SDS011;5525;42.648;23.368;2023-03-31T03:49:04;4.43;;;3.45;;
10945;SDS011;5525;42.648;23.368;2023-03-31T03:51:32;6.10;;;4.05;;
10945;SDS011;5525;42.648;23.368;2023-03-31T03:53:59;6.25;;;4.20;;
10945;SDS011;5525;42.648;23.368;2023-03-31T03:56:26;6.32;;;4.13;;
10945;SDS011;5525;42.648;23.368;2023-03-31T03:58:53;7.85;;;3.67;;
10945;SDS011;5525;42.648;23.368;2023-03-31T04:01:20;6.90;;;4.10;;
10945;SDS011;5525;42.648;23.368;2023-03-31T04:03:46;6.63;;;4.07;;
10945;SDS011;5525;42.648;23.368;2023-03-31T04:06:13;6.63;;;4.53;;
10945;SDS011;5525;42.648;23.368;2023-03-31T04:08:41;9.20;;;4.85;;
10945;SDS011;5525;42.648;23.368;2023-03-31T04:11:10;7.38;;;4.82;;
10945;SDS011;5525;42.648;23.368;2023-03-31T04:13:39;9.40;;;5.00;;
10945;SDS011;5525;42.648;23.368;2023-03-31T04:16:06;7.15;;;5.13;;
10945;SDS011;5525;42.648;23.368;2023-03-31T04:18:33;8.75;;;5.18;;
10945;SDS011;5525;42.648;23.368;2023-03-31T04:21:01;6.78;;;4.70;;
10945;SDS011;5525;42.648;23.368;2023-03-31T04:23:32;6.22;;;4.75;;
10945;SDS011;5525;42.648;23.368;2023-03-31T04:26:03;8.32;;;4.93;;
10945;SDS011;5525;42.648;23.368;2023-03-31T04:28:32;7.88;;;5.10;;
10945;SDS011;5525;42.648;23.368;2023-03-31T04:30:59;6.45;;;5.15;;
10945;SDS011;5525;42.648;23.368;2023-03-31T04:33:26;6.05;;;4.05;;
10945;SDS011;5525;42.648;23.368;2023-03-31T04:35:53;7.28;;;4.25;;
10945;SDS011;5525;42.648;23.368;2023-03-31T04:38:20;7.28;;;4.47;;
10945;SDS011;5525;42.648;23.368;2023-03-31T04:40:48;9.23;;;4.57;;
10945;SDS011;5525;42.648;23.368;2023-03-31T04:43:18;6.55;;;4.80;;
10945;SDS011;5525;42.648;23.368;2023-03-31T04:45:46;6.55;;;4.38;;
10945;SDS011;5525;42.648;23.368;2023-03-31T04:48:13;7.10;;;4.72;;
10945;SDS011;5525;42.648;23.368;2023-03-31T04:50:42;5.75;;;4.78;;
10945;SDS011;5525;42.648;23.368;2023-03-31T04:53:08;10.93;;;5.43;;
10945;SDS011;5525;42.648;23.368;2023-03-31T04:55:35;7.97;;;4.85;;
10945;SDS011;5525;42.648;23.368;2023-03-31T04:58:02;7.82;;;5.32;;
10945;SDS011;5525;42.648;23.368;2023-03-31T05:00:30;8.57;;;5.47;;
10945;SDS011;5525;42.648;23.368;2023-03-31T05:02:58;8.95;;;5.15;;
10945;SDS011;5525;42.648;23.368;2023-03-31T05:05:25;6.80;;;4.57;;
10945;SDS011;5525;42.648;23.368;2023-03-31T05:07:52;5.80;;;3.95;;
10945;SDS011;5525;42.648;23.368;2023-03-31T05:10:20;6.70;;;4.22;;
10945;SDS011;5525;42.648;23.368;2023-03-31T05:12:47;5.82;;;4.22;;
10945;SDS011;5525;42.648;23.368;2023-03-31T05:15:14;6.07;;;4.28;;
10945;SDS011;5525;42.648;23.368;2023-03-31T05:17:42;4.72;;;4.20;;
10945;SDS011;5525;42.648;23.368;2023-03-31T05:20:10;8.13;;;4.70;;
10945;SDS011;5525;42.648;23.368;2023-03-31T05:22:39;5.90;;;4.60;;
10945;SDS011;5525;42.648;23.368;2023-03-31T05:25:07;7.18;;;5.10;;
10945;SDS011;5525;42.648;23.368;2023-03-31T05:27:36;8.60;;;5.07;;
10945;SDS011;5525;42.648;23.368;2023-03-31T05:30:03;7.60;;;5.18;;
10945;SDS011;5525;42.648;23.368;2023-03-31T05:32:30;8.52;;;5.28;;
10945;SDS011;5525;42.648;23.368;2023-03-31T05:34:58;9.30;;;5.95;;
10945;SDS011;5525;42.648;23.368;2023-03-31T05:37:25;9.13;;;5.63;;
10945;SDS011;5525;42.648;23.368;2023-03-31T05:39:52;10.60;;;5.22;;
10945;SDS011;5525;42.648;23.368;2023-03-31T05:42:19;10.48;;;5.80;;
10945;SDS011;5525;42.648;23.368;2023-03-31T05:44:46;8.10;;;5.80;;
10945;SDS011;5525;42.648;23.368;2023-03-31T05:47:13;8.05;;;5.43;;
10945;SDS011;5525;42.648;23.368;2023-03-31T05:49:39;10.10;;;6.05;;
10945;SDS011;5525;42.648;23.368;2023-03-31T05:52:08;11.48;;;6.20;;
10945;SDS011;5525;42.648;23.368;2023-03-31T05:54:35;8.10;;;5.97;;
10945;SDS011;5525;42.648;23.368;2023-03-31T05:57:02;9.55;;;6.72;;
10945;SDS011;5525;42.648;23.368;2023-03-31T05:59:29;10.82;;;6.68;;
10945;SDS011;5525;42.648;23.368;2023-03-31T06:01:56;9.57;;;6.32;;
10945;SDS011;5525;42.648;23.368;2023-03-31T06:04:23;10.40;;;6.82;;
10945;SDS011;5525;42.648;23.368;2023-03-31T06:06:49;10.95;;;6.88;;
10945;SDS011;5525;42.648;23.368;2023-03-31T06:09:19;11.80;;;6.75;;
10945;SDS011;5525;42.648;23.368;2023-03-31T06:11:46;9.40;;;6.30;;
10945;SDS011;5525;42.648;23.368;2023-03-31T06:14:12;12.23;;;6.82;;
10945;SDS011;5525;42.648;23.368;2023-03-31T06:16:39;10.85;;;7.03;;
10945;SDS011;5525;42.648;23.368;2023-03-31T06:19:06;9.38;;;6.22;;
10945;SDS011;5525;42.648;23.368;2023-03-31T06:21:33;10.13;;;6.65;;
10945;SDS011;5525;42.648;23.368;2023-03-31T06:24:00;11.77;;;6.95;;
10945;SDS011;5525;42.648;23.368;2023-03-31T06:26:28;12.23;;;8.27;;
10945;SDS011;5525;42.648;23.368;2023-03-31T06:28:54;10.45;;;6.97;;
10945;SDS011;5525;42.648;23.368;2023-03-31T06:31:22;9.88;;;5.90;;
10945;SDS011;5525;42.648;23.368;2023-03-31T06:33:50;9.13;;;5.97;;
10945;SDS011;5525;42.648;23.368;2023-03-31T06:36:17;9.73;;;6.38;;
10945;SDS011;5525;42.648;23.368;2023-03-31T06:38:46;11.82;;;7.25;;
10945;SDS011;5525;42.648;23.368;2023-03-31T06:41:13;8.65;;;6.93;;
10945;SDS011;5525;42.648;23.368;2023-03-31T06:43:42;10.30;;;7.43;;
10945;SDS011;5525;42.648;23.368;2023-03-31T06:46:10;11.35;;;6.80;;
10945;SDS011;5525;42.648;23.368;2023-03-31T06:48:38;11.68;;;6.82;;
10945;SDS011;5525;42.648;23.368;2023-03-31T06:51:05;10.23;;;6.80;;
10945;SDS011;5525;42.648;23.368;2023-03-31T06:53:33;10.38;;;6.95;;
10945;SDS011;5525;42.648;23.368;2023-03-31T06:56:00;10.65;;;6.35;;
10945;SDS011;5525;42.648;23.368;2023-03-31T06:58:27;13.32;;;6.07;;
10945;SDS011;5525;42.648;23.368;2023-03-31T07:00:56;11.88;;;6.88;;
10945;SDS011;5525;42.648;23.368;2023-03-31T07:03:22;11.35;;;5.45;;
10945;SDS011;5525;42.648;23.368;2023-03-31T07:05:50;10.43;;;5.80;;
10945;SDS011;5525;42.648;23.368;2023-03-31T07:08:17;7.63;;;5.65;;
10945;SDS011;5525;42.648;23.368;2023-03-31T07:10:45;14.95;;;6.68;;
10945;SDS011;5525;42.648;23.368;2023-03-31T07:13:13;7.30;;;5.18;;
10945;SDS011;5525;42.648;23.368;2023-03-31T07:15:40;11.75;;;5.28;;
10945;SDS011;5525;42.648;23.368;2023-03-31T07:18:09;7.60;;;4.75;;
10945;SDS011;5525;42.648;23.368;2023-03-31T07:20:36;8.13;;;5.20;;
10945;SDS011;5525;42.648;23.368;2023-03-31T07:23:03;9.63;;;4.75;;
10945;SDS011;5525;42.648;23.368;2023-03-31T07:25:31;7.03;;;5.13;;
10945;SDS011;5525;42.648;23.368;2023-03-31T07:27:58;11.02;;;5.57;;
10945;SDS011;5525;42.648;23.368;2023-03-31T07:30:25;6.95;;;5.15;;
10945;SDS011;5525;42.648;23.368;2023-03-31T07:32:52;7.57;;;4.93;;
10945;SDS011;5525;42.648;23.368;2023-03-31T07:35:22;8.75;;;6.30;;
10945;SDS011;5525;42.648;23.368;2023-03-31T07:37:50;12.68;;;6.50;;
10945;SDS011;5525;42.648;23.368;2023-03-31T07:40:18;8.23;;;5.68;;
10945;SDS011;5525;42.648;23.368;2023-03-31T07:42:47;11.82;;;5.50;;
10945;SDS011;5525;42.648;23.368;2023-03-31T07:45:16;9.88;;;5.45;;
10945;SDS011;5525;42.648;23.368;2023-03-31T07:47:43;9.20;;;5.10;;
10945;SDS011;5525;42.648;23.368;2023-03-31T07:50:12;10.77;;;5.47;;
10945;SDS011;5525;42.648;23.368;2023-03-31T07:52:41;9.07;;;5.30;;
10945;SDS011;5525;42.648;23.368;2023-03-31T07:55:08;10.40;;;4.85;;
10945;SDS011;5525;42.648;23.368;2023-03-31T07:57:36;16.90;;;5.82;;
10945;SDS011;5525;42.648;23.368;2023-03-31T08:00:05;7.50;;;4.30;;
10945;SDS011;5525;42.648;23.368;2023-03-31T08:02:36;6.85;;;4.28;;
10945;SDS011;5525;42.648;23.368;2023-03-31T08:05:03;6.50;;;4.25;;
10945;SDS011;5525;42.648;23.368;2023-03-31T08:07:32;4.30;;;3.67;;
10945;SDS011;5525;42.648;23.368;2023-03-31T08:10:01;8.55;;;3.75;;
10945;SDS011;5525;42.648;23.368;2023-03-31T08:12:30;6.70;;;4.10;;
10945;SDS011;5525;42.648;23.368;2023-03-31T08:14:56;5.85;;;3.20;;
10945;SDS011;5525;42.648;23.368;2023-03-31T08:17:23;7.05;;;3.78;;
10945;SDS011;5525;42.648;23.368;2023-03-31T08:19:50;7.75;;;3.53;;
10945;SDS011;5525;42.648;23.368;2023-03-31T08:22:16;7.88;;;3.10;;
10945;SDS011;5525;42.648;23.368;2023-03-31T08:24:43;4.55;;;3.00;;
10945;SDS011;5525;42.648;23.368;2023-03-31T08:27:11;6.15;;;3.00;;
10945;SDS011;5525;42.648;23.368;2023-03-31T08:29:38;9.85;;;3.00;;
10945;SDS011;5525;42.648;23.368;2023-03-31T08:32:06;6.18;;;3.00;;
10945;SDS011;5525;42.648;23.368;2023-03-31T08:34:32;5.78;;;3.00;;
10945;SDS011;5525;42.648;23.368;2023-03-31T08:37:00;6.20;;;3.00;;
10945;SDS011;5525;42.648;23.368;2023-03-31T08:39:27;8.43;;;2.67;;
10945;SDS011;5525;42.648;23.368;2023-03-31T08:41:54;6.28;;;3.00;;
10945;SDS011;5525;42.648;23.368;2023-03-31T08:44:28;4.82;;;2.78;;
10945;SDS011;5525;42.648;23.368;2023-03-31T08:47:00;5.03;;;2.50;;
10945;SDS011;5525;42.648;23.368;2023-03-31T08:49:31;8.30;;;2.53;;
10945;SDS011;5525;42.648;23.368;2023-03-31T08:52:06;4.70;;;2.47;;
10945;SDS011;5525;42.648;23.368;2023-03-31T08:54:38;6.28;;;2.67;;
10945;SDS011;5525;42.648;23.368;2023-03-31T08:57:10;7.05;;;2.60;;
10945;SDS011;5525;42.648;23.368;2023-03-31T08:59:42;5.30;;;3.00;;
10945;SDS011;5525;42.648;23.368;2023-03-31T09:02:11;5.03;;;2.53;;
10945;SDS011;5525;42.648;23.368;2023-03-31T09:04:52;7.13;;;2.83;;
10945;SDS011;5525;42.648;23.368;2023-03-31T09:07:46;5.43;;;2.60;;
10945;SDS011;5525;42.648;23.368;2023-03-31T09:10:31;8.27;;;3.60;;
10945;SDS011;5525;42.648;23.368;2023-03-31T09:13:06;7.55;;;2.80;;
10945;SDS011;5525;42.648;23.368;2023-03-31T09:15:45;9.20;;;2.85;;
10945;SDS011;5525;42.648;23.368;2023-03-31T09:18:19;9.05;;;2.53;;
10945;SDS011;5525;42.648;23.368;2023-03-31T09:20:54;7.38;;;2.20;;
10945;SDS011;5525;42.648;23.368;2023-03-31T09:23:25;6.90;;;2.70;;
10945;SDS011;5525;42.648;23.368;2023-03-31T09:25:56;3.97;;;2.47;;
10945;SDS011;5525;42.648;23.368;2023-03-31T09:28:25;8.82;;;2.40;;
10945;SDS011;5525;42.648;23.368;2023-03-31T09:30:57;8.13;;;2.20;;
10945;SDS011;5525;42.648;23.368;2023-03-31T09:33:25;4.38;;;2.45;;
10945;SDS011;5525;42.648;23.368;2023-03-31T09:35:56;6.13;;;2.58;;
10945;SDS011;5525;42.648;23.368;2023-03-31T09:38:22;5.00;;;2.13;;
10945;SDS011;5525;42.648;23.368;2023-03-31T09:40:53;6.57;;;2.45;;
10945;SDS011;5525;42.648;23.368;2023-03-31T09:43:21;3.45;;;2.00;;
10945;SDS011;5525;42.648;23.368;2023-03-31T09:45:51;4.05;;;1.73;;
10945;SDS011;5525;42.648;23.368;2023-03-31T09:48:20;14.80;;;2.58;;
10945;SDS011;5525;42.648;23.368;2023-03-31T09:50:51;3.33;;;2.25;;
10945;SDS011;5525;42.648;23.368;2023-03-31T09:53:24;3.30;;;1.70;;
10945;SDS011;5525;42.648;23.368;2023-03-31T09:55:59;3.35;;;1.98;;
10945;SDS011;5525;42.648;23.368;2023-03-31T09:58:27;6.72;;;2.47;;
10945;SDS011;5525;42.648;23.368;2023-03-31T10:00:58;3.42;;;1.70;;
10945;SDS011;5525;42.648;23.368;2023-03-31T10:03:27;4.45;;;2.10;;
10945;SDS011;5525;42.648;23.368;2023-03-31T10:06:01;6.28;;;2.20;;
10945;SDS011;5525;42.648;23.368;2023-03-31T10:08:37;5.03;;;2.05;;
10945;SDS011;5525;42.648;23.368;2023-03-31T10:11:08;4.72;;;2.30;;
10945;SDS011;5525;42.648;23.368;2023-03-31T10:13:40;5.80;;;2.13;;
10945;SDS011;5525;42.648;23.368;2023-03-31T10:16:12;5.68;;;2.17;;
10945;SDS011;5525;42.648;23.368;2023-03-31T10:18:42;5.13;;;2.15;;
10945;SDS011;5525;42.648;23.368;2023-03-31T10:21:14;5.05;;;2.22;;
10945;SDS011;5525;42.648;23.368;2023-03-31T10:23:46;4.68;;;2.20;;
10945;SDS011;5525;42.648;23.368;2023-03-31T10:26:15;4.47;;;2.28;;
10945;SDS011;5525;42.648;23.368;2023-03-31T10:28:45;8.68;;;2.40;;
10945;SDS011;5525;42.648;23.368;2023-03-31T10:31:14;7.03;;;1.85;;
10945;SDS011;5525;42.648;23.368;2023-03-31T10:33:43;4.22;;;2.10;;
10945;SDS011;5525;42.648;23.368;2023-03-31T10:36:14;7.00;;;2.40;;
10945;SDS011;5525;42.648;23.368;2023-03-31T10:38:46;4.63;;;2.25;;
10945;SDS011;5525;42.648;23.368;2023-03-31T10:41:16;5.47;;;2.30;;
10945;SDS011;5525;42.648;23.368;2023-03-31T10:43:47;6.45;;;2.42;;
10945;SDS011;5525;42.648;23.368;2023-03-31T10:46:15;4.47;;;1.90;;
10945;SDS011;5525;42.648;23.368;2023-03-31T10:48:43;7.85;;;2.20;;
10945;SDS011;5525;42.648;23.368;2023-03-31T10:51:11;4.18;;;1.85;;
10945;SDS011;5525;42.648;23.368;2023-03-31T10:53:41;4.65;;;1.80;;
10945;SDS011;5525;42.648;23.368;2023-03-31T10:59:06;5.63;;;2.15;;
10945;SDS011;5525;42.648;23.368;2023-03-31T11:01:48;6.40;;;2.20;;
10945;SDS011;5525;42.648;23.368;2023-03-31T11:04:30;7.93;;;1.90;;
10945;SDS011;5525;42.648;23.368;2023-03-31T11:07:10;2.25;;;1.85;;
10945;SDS011;5525;42.648;23.368;2023-03-31T11:09:48;9.85;;;2.38;;
10945;SDS011;5525;42.648;23.368;2023-03-31T11:12:23;5.25;;;2.13;;
10945;SDS011;5525;42.648;23.368;2023-03-31T11:14:59;5.78;;;3.05;;
10945;SDS011;5525;42.648;23.368;2023-03-31T11:17:44;5.50;;;2.22;;
10945;SDS011;5525;42.648;23.368;2023-03-31T11:20:25;3.95;;;2.00;;
10945;SDS011;5525;42.648;23.368;2023-03-31T11:22:57;3.22;;;2.10;;
10945;SDS011;5525;42.648;23.368;2023-03-31T11:25:33;3.88;;;2.08;;
10945;SDS011;5525;42.648;23.368;2023-03-31T11:28:17;4.38;;;1.83;;
10945;SDS011;5525;42.648;23.368;2023-03-31T11:30:51;3.63;;;2.00;;
10945;SDS011;5525;42.648;23.368;2023-03-31T11:33:35;3.85;;;2.00;;
10945;SDS011;5525;42.648;23.368;2023-03-31T11:36:17;6.43;;;2.58;;
10945;SDS011;5525;42.648;23.368;2023-03-31T11:38:58;5.80;;;2.10;;
10945;SDS011;5525;42.648;23.368;2023-03-31T11:41:38;4.13;;;2.22;;
10945;SDS011;5525;42.648;23.368;2023-03-31T11:44:10;4.25;;;2.33;;
10945;SDS011;5525;42.648;23.368;2023-03-31T11:46:38;9.25;;;2.60;;
10945;SDS011;5525;42.648;23.368;2023-03-31T11:49:10;8.73;;;2.60;;
10945;SDS011;5525;42.648;23.368;2023-03-31T11:51:46;4.28;;;2.13;;
10945;SDS011;5525;42.648;23.368;2023-03-31T11:54:17;5.95;;;2.08;;
10945;SDS011;5525;42.648;23.368;2023-03-31T11:56:49;4.88;;;2.40;;
10945;SDS011;5525;42.648;23.368;2023-03-31T11:59:17;5.10;;;2.30;;
10945;SDS011;5525;42.648;23.368;2023-03-31T12:01:47;5.70;;;2.50;;
10945;SDS011;5525;42.648;23.368;2023-03-31T12:04:22;7.22;;;2.30;;
10945;SDS011;5525;42.648;23.368;2023-03-31T12:07:00;6.70;;;2.40;;
10945;SDS011;5525;42.648;23.368;2023-03-31T12:09:34;4.75;;;2.53;;
10945;SDS011;5525;42.648;23.368;2023-03-31T12:12:08;3.95;;;1.90;;
10945;SDS011;5525;42.648;23.368;2023-03-31T12:14:42;4.10;;;2.17;;
10945;SDS011;5525;42.648;23.368;2023-03-31T12:17:14;5.32;;;2.25;;
10945;SDS011;5525;42.648;23.368;2023-03-31T12:19:44;4.90;;;2.20;;
10945;SDS011;5525;42.648;23.368;2023-03-31T12:22:15;9.02;;;2.38;;
10945;SDS011;5525;42.648;23.368;2023-03-31T12:24:45;3.42;;;2.22;;
10945;SDS011;5525;42.648;23.368;2023-03-31T12:27:13;5.18;;;2.63;;
10945;SDS011;5525;42.648;23.368;2023-03-31T12:29:44;2.90;;;1.85;;
10945;SDS011;5525;42.648;23.368;2023-03-31T12:32:13;5.40;;;2.10;;
10945;SDS011;5525;42.648;23.368;2023-03-31T12:34:44;5.18;;;2.13;;
10945;SDS011;5525;42.648;23.368;2023-03-31T12:37:31;2.53;;;2.00;;
10945;SDS011;5525;42.648;23.368;2023-03-31T12:40:15;3.40;;;2.10;;
10945;SDS011;5525;42.648;23.368;2023-03-31T12:43:04;3.42;;;2.03;;
10945;SDS011;5525;42.648;23.368;2023-03-31T12:45:45;4.57;;;2.50;;
10945;SDS011;5525;42.648;23.368;2023-03-31T12:48:30;7.05;;;2.22;;
10945;SDS011;5525;42.648;23.368;2023-03-31T12:51:20;4.55;;;2.10;;
10945;SDS011;5525;42.648;23.368;2023-03-31T12:54:09;6.43;;;2.20;;
10945;SDS011;5525;42.648;23.368;2023-03-31T12:57:02;4.40;;;2.00;;
10945;SDS011;5525;42.648;23.368;2023-03-31T12:59:41;3.83;;;2.00;;
10945;SDS011;5525;42.648;23.368;2023-03-31T13:02:17;4.50;;;1.95;;
10945;SDS011;5525;42.648;23.368;2023-03-31T13:04:48;9.32;;;2.28;;
10945;SDS011;5525;42.648;23.368;2023-03-31T13:13:03;3.95;;;1.90;;
10945;SDS011;5525;42.648;23.368;2023-03-31T13:15:31;6.95;;;2.22;;
10945;SDS011;5525;42.648;23.368;2023-03-31T13:17:59;4.20;;;2.00;;
10945;SDS011;5525;42.648;23.368;2023-03-31T13:20:31;4.22;;;2.00;;
10945;SDS011;5525;42.648;23.368;2023-03-31T13:23:13;4.82;;;1.90;;
10945;SDS011;5525;42.648;23.368;2023-03-31T13:25:45;7.95;;;2.47;;
10945;SDS011;5525;42.648;23.368;2023-03-31T13:28:24;4.53;;;2.03;;
10945;SDS011;5525;42.648;23.368;2023-03-31T13:30:56;7.75;;;2.22;;
10945;SDS011;5525;42.648;23.368;2023-03-31T13:36:21;7.60;;;2.05;;
10945;SDS011;5525;42.648;23.368;2023-03-31T13:39:20;3.88;;;2.15;;
10945;SDS011;5525;42.648;23.368;2023-03-31T13:42:03;4.45;;;2.40;;
10945;SDS011;5525;42.648;23.368;2023-03-31T13:44:47;3.35;;;2.17;;
10945;SDS011;5525;42.648;23.368;2023-03-31T13:47:35;4.05;;;2.00;;
10945;SDS011;5525;42.648;23.368;2023-03-31T13:59:31;6.47;;;2.13;;
10945;SDS011;5525;42.648;23.368;2023-03-31T14:02:38;4.60;;;2.05;;
10945;SDS011;5525;42.648;23.368;2023-03-31T14:05:22;5.57;;;1.85;;
10945;SDS011;5525;42.648;23.368;2023-03-31T14:07:54;5.05;;;2.25;;
10945;SDS011;5525;42.648;23.368;2023-03-31T14:10:27;4.50;;;2.20;;
10945;SDS011;5525;42.648;23.368;2023-03-31T14:13:06;9.90;;;2.97;;
10945;SDS011;5525;42.648;23.368;2023-03-31T14:15:37;6.63;;;2.20;;
10945;SDS011;5525;42.648;23.368;2023-03-31T14:18:05;5.35;;;2.20;;
10945;SDS011;5525;42.648;23.368;2023-03-31T14:20:43;3.88;;;2.13;;
10945;SDS011;5525;42.648;23.368;2023-03-31T14:23:23;4.50;;;2.00;;
10945;SDS011;5525;42.648;23.368;2023-03-31T14:26:00;4.50;;;2.30;;
10945;SDS011;5525;42.648;23.368;2023-03-31T14:28:44;5.07;;;2.00;;
10945;SDS011;5525;42.648;23.368;2023-03-31T14:31:24;5.25;;;1.77;;
10945;SDS011;5525;42.648;23.368;2023-03-31T14:34:05;10.77;;;3.90;;
10945;SDS011;5525;42.648;23.368;2023-03-31T14:36:46;7.90;;;2.10;;
10945;SDS011;5525;42.648;23.368;2023-03-31T14:39:21;4.35;;;2.00;;
10945;SDS011;5525;42.648;23.368;2023-03-31T14:41:52;4.55;;;2.30;;
10945;SDS011;5525;42.648;23.368;2023-03-31T14:44:19;6.82;;;2.28;;
10945;SDS011;5525;42.648;23.368;2023-03-31T14:46:47;8.32;;;4.97;;
10945;SDS011;5525;42.648;23.368;2023-03-31T14:49:17;4.60;;;2.40;;
10945;SDS011;5525;42.648;23.368;2023-03-31T14:51:48;5.28;;;2.22;;
10945;SDS011;5525;42.648;23.368;2023-03-31T14:54:19;9.32;;;2.63;;
10945;SDS011;5525;42.648;23.368;2023-03-31T14:56:46;5.72;;;1.92;;
10945;SDS011;5525;42.648;23.368;2023-03-31T14:59:17;4.53;;;1.73;;
10945;SDS011;5525;42.648;23.368;2023-03-31T15:01:48;4.65;;;2.15;;
10945;SDS011;5525;42.648;23.368;2023-03-31T15:04:16;6.63;;;2.15;;
10945;SDS011;5525;42.648;23.368;2023-03-31T15:06:46;5.45;;;2.10;;
10945;SDS011;5525;42.648;23.368;2023-03-31T15:09:17;5.97;;;2.15;;
10945;SDS011;5525;42.648;23.368;2023-03-31T15:11:47;5.15;;;1.92;;
10945;SDS011;5525;42.648;23.368;2023-03-31T15:14:20;7.78;;;3.00;;
10945;SDS011;5525;42.648;23.368;2023-03-31T15:16:49;6.60;;;2.40;;
10945;SDS011;5525;42.648;23.368;2023-03-31T15:19:16;3.63;;;2.17;;
10945;SDS011;5525;42.648;23.368;2023-03-31T15:21:45;6.20;;;2.30;;
10945;SDS011;5525;42.648;23.368;2023-03-31T15:24:18;4.40;;;2.40;;
10945;SDS011;5525;42.648;23.368;2023-03-31T15:26:47;6.55;;;2.30;;
10945;SDS011;5525;42.648;23.368;2023-03-31T15:29:20;13.02;;;2.58;;
10945;SDS011;5525;42.648;23.368;2023-03-31T15:31:56;4.43;;;2.25;;
10945;SDS011;5525;42.648;23.368;2023-03-31T15:34:24;5.18;;;2.33;;
10945;SDS011;5525;42.648;23.368;2023-03-31T15:36:54;5.55;;;2.33;;
10945;SDS011;5525;42.648;23.368;2023-03-31T15:39:21;3.90;;;2.22;;
10945;SDS011;5525;42.648;23.368;2023-03-31T15:41:48;6.38;;;2.13;;